Hanover, Connecticut
Current Conditions -  °F | °C
As of 12:52 PM on Saturday 20 Dec 2014 (Local Time) from KIJD Reporting Station
Overcast Overcast  
Wind Chill: 30°   Ceiling: 2700
Heat Index: 34°   Visibility: 10mi
Dew Point: 22°   Wind: 5mph
Humidity: 61%   Direction: 20°NNE
Pressure: 30.25"   Gusts: NA
Location:  41.64°N, 72.07°W
Report Text: KIJD 201752Z AUTO 02004KT 10SM OVC027 01/M06 A3025 RMK AO2 SLP247 T00111056 10011 21033 56008
Loading
Personal Weather Stations






























Interactive Weather Map New forecast layout! Learn more

10-Day Weather Forecast

Advertisements
Track Severe Weather on mobile